sensor_id;sensor_type;location;lat;lon;timestamp;pressure;altitude;pressure_sealevel;temperature;humidity
30421;BME280;17218;54.070;10.012;2024-01-07T00:00:51;101935.56;;;0.63;100.00
30421;BME280;17218;54.070;10.012;2024-01-07T00:03:18;101939.63;;;0.59;100.00
30421;BME280;17218;54.070;10.012;2024-01-07T00:05:44;101939.22;;;0.68;100.00
30421;BME280;17218;54.070;10.012;2024-01-07T00:08:12;101943.59;;;0.70;100.00
30421;BME280;17218;54.070;10.012;2024-01-07T00:10:40;101946.25;;;0.72;100.00
30421;BME280;17218;54.070;10.012;2024-01-07T00:13:06;101938.59;;;0.72;100.00
30421;BME280;17218;54.070;10.012;2024-01-07T00:15:33;101950.31;;;0.68;100.00
30421;BME280;17218;54.070;10.012;2024-01-07T00:17:59;101944.63;;;0.74;100.00
30421;BME280;17218;54.070;10.012;2024-01-07T00:20:25;101960.78;;;0.58;100.00
30421;BME280;17218;54.070;10.012;2024-01-07T00:22:52;101950.16;;;0.50;100.00
30421;BME280;17218;54.070;10.012;2024-01-07T00:25:18;101950.09;;;0.49;100.00
30421;BME280;17218;54.070;10.012;2024-01-07T00:27:46;101958.56;;;0.47;100.00
30421;BME280;17218;54.070;10.012;2024-01-07T00:30:13;101963.03;;;0.52;100.00
30421;BME280;17218;54.070;10.012;2024-01-07T00:32:39;101961.25;;;0.51;100.00
30421;BME280;17218;54.070;10.012;2024-01-07T00:35:06;101953.94;;;0.57;100.00
30421;BME280;17218;54.070;10.012;2024-01-07T00:37:33;101973.63;;;0.59;100.00
30421;BME280;17218;54.070;10.012;2024-01-07T00:40:00;101957.78;;;0.65;100.00
30421;BME280;17218;54.070;10.012;2024-01-07T00:42:26;101969.41;;;0.60;100.00
30421;BME280;17218;54.070;10.012;2024-01-07T00:44:54;101969.47;;;0.62;100.00
30421;BME280;17218;54.070;10.012;2024-01-07T00:47:21;101978.03;;;0.62;100.00
30421;BME280;17218;54.070;10.012;2024-01-07T00:49:47;101971.06;;;0.59;100.00
30421;BME280;17218;54.070;10.012;2024-01-07T00:52:14;101970.06;;;0.73;100.00
30421;BME280;17218;54.070;10.012;2024-01-07T00:54:40;101986.63;;;0.64;100.00
30421;BME280;17218;54.070;10.012;2024-01-07T00:57:07;101983.75;;;0.58;100.00
30421;BME280;17218;54.070;10.012;2024-01-07T00:59:33;101992.13;;;0.55;100.00
30421;BME280;17218;54.070;10.012;2024-01-07T01:02:01;101985.09;;;0.51;100.00
30421;BME280;17218;54.070;10.012;2024-01-07T01:04:27;101979.44;;;0.57;100.00
30421;BME280;17218;54.070;10.012;2024-01-07T01:06:54;101985.16;;;0.53;100.00
30421;BME280;17218;54.070;10.012;2024-01-07T01:09:21;101987.81;;;0.54;100.00
30421;BME280;17218;54.070;10.012;2024-01-07T01:11:47;102004.50;;;0.64;100.00
30421;BME280;17218;54.070;10.012;2024-01-07T01:14:15;102001.13;;;0.65;100.00
30421;BME280;17218;54.070;10.012;2024-01-07T01:16:41;102001.94;;;0.64;100.00
30421;BME280;17218;54.070;10.012;2024-01-07T01:19:09;102008.00;;;0.66;100.00
30421;BME280;17218;54.070;10.012;2024-01-07T01:21:35;101998.81;;;0.53;100.00
30421;BME280;17218;54.070;10.012;2024-01-07T01:24:02;102006.66;;;0.41;100.00
30421;BME280;17218;54.070;10.012;2024-01-07T01:26:29;102014.38;;;0.43;100.00
30421;BME280;17218;54.070;10.012;2024-01-07T01:28:55;102013.22;;;0.53;100.00
30421;BME280;17218;54.070;10.012;2024-01-07T01:31:22;102013.47;;;0.57;100.00
30421;BME280;17218;54.070;10.012;2024-01-07T01:33:48;102015.47;;;0.63;100.00
30421;BME280;17218;54.070;10.012;2024-01-07T01:36:16;102020.41;;;0.60;100.00
30421;BME280;17218;54.070;10.012;2024-01-07T01:38:42;102021.75;;;0.53;100.00
30421;BME280;17218;54.070;10.012;2024-01-07T01:41:09;102017.44;;;0.52;100.00
30421;BME280;17218;54.070;10.012;2024-01-07T01:43:35;102024.03;;;0.49;100.00
30421;BME280;17218;54.070;10.012;2024-01-07T01:46:02;102023.06;;;0.46;100.00
30421;BME280;17218;54.070;10.012;2024-01-07T01:48:29;102035.59;;;0.27;100.00
30421;BME280;17218;54.070;10.012;2024-01-07T01:50:56;102027.97;;;0.11;100.00
30421;BME280;17218;54.070;10.012;2024-01-07T01:53:25;102034.38;;;0.05;100.00
30421;BME280;17218;54.070;10.012;2024-01-07T01:55:52;102042.56;;;0.14;100.00
30421;BME280;17218;54.070;10.012;2024-01-07T01:58:20;102045.19;;;0.16;100.00
30421;BME280;17218;54.070;10.012;2024-01-07T02:00:48;102042.88;;;0.20;100.00
30421;BME280;17218;54.070;10.012;2024-01-07T02:03:16;102048.00;;;0.05;100.00
30421;BME280;17218;54.070;10.012;2024-01-07T02:05:42;102038.44;;;0.16;100.00
30421;BME280;17218;54.070;10.012;2024-01-07T02:08:10;102050.91;;;0.27;100.00
30421;BME280;17218;54.070;10.012;2024-01-07T02:10:38;102047.00;;;0.33;100.00
30421;BME280;17218;54.070;10.012;2024-01-07T02:13:04;102052.38;;;0.38;100.00
30421;BME280;17218;54.070;10.012;2024-01-07T02:15:31;102044.72;;;0.53;100.00
30421;BME280;17218;54.070;10.012;2024-01-07T02:17:59;102056.94;;;0.59;100.00
30421;BME280;17218;54.070;10.012;2024-01-07T02:20:25;102054.91;;;0.53;100.00
30421;BME280;17218;54.070;10.012;2024-01-07T02:22:52;102056.50;;;0.51;100.00
30421;BME280;17218;54.070;10.012;2024-01-07T02:25:20;102058.16;;;0.51;100.00
30421;BME280;17218;54.070;10.012;2024-01-07T02:27:46;102060.63;;;0.49;100.00
30421;BME280;17218;54.070;10.012;2024-01-07T02:30:13;102067.06;;;0.42;100.00
30421;BME280;17218;54.070;10.012;2024-01-07T02:32:39;102067.25;;;0.30;100.00
30421;BME280;17218;54.070;10.012;2024-01-07T02:35:06;102063.47;;;0.39;100.00
30421;BME280;17218;54.070;10.012;2024-01-07T02:37:33;102059.22;;;0.39;100.00
30421;BME280;17218;54.070;10.012;2024-01-07T02:40:00;102065.22;;;0.40;100.00
30421;BME280;17218;54.070;10.012;2024-01-07T02:42:28;102073.03;;;0.43;100.00
30421;BME280;17218;54.070;10.012;2024-01-07T02:44:54;102063.47;;;0.39;100.00
30421;BME280;17218;54.070;10.012;2024-01-07T02:47:21;102074.34;;;0.36;100.00
30421;BME280;17218;54.070;10.012;2024-01-07T02:49:47;102075.50;;;0.41;100.00
30421;BME280;17218;54.070;10.012;2024-01-07T02:52:14;102082.06;;;0.53;100.00
30421;BME280;17218;54.070;10.012;2024-01-07T02:54:40;102084.34;;;0.63;100.00
30421;BME280;17218;54.070;10.012;2024-01-07T02:57:07;102089.94;;;0.73;100.00
30421;BME280;17218;54.070;10.012;2024-01-07T02:59:34;102099.38;;;0.74;100.00
30421;BME280;17218;54.070;10.012;2024-01-07T03:02:01;102110.19;;;0.69;100.00
30421;BME280;17218;54.070;10.012;2024-01-07T03:04:27;102111.94;;;0.70;100.00
30421;BME280;17218;54.070;10.012;2024-01-07T03:06:54;102109.75;;;0.77;100.00
30421;BME280;17218;54.070;10.012;2024-01-07T03:09:20;102116.59;;;0.78;100.00
30421;BME280;17218;54.070;10.012;2024-01-07T03:11:47;102107.88;;;0.74;100.00
30421;BME280;17218;54.070;10.012;2024-01-07T03:14:13;102113.78;;;0.73;100.00
30421;BME280;17218;54.070;10.012;2024-01-07T03:16:43;102120.78;;;0.61;100.00
30421;BME280;17218;54.070;10.012;2024-01-07T03:19:09;102119.28;;;0.49;100.00
30421;BME280;17218;54.070;10.012;2024-01-07T03:21:36;102131.06;;;0.47;100.00
30421;BME280;17218;54.070;10.012;2024-01-07T03:24:03;102126.75;;;0.46;100.00
30421;BME280;17218;54.070;10.012;2024-01-07T03:26:30;102123.84;;;0.40;100.00
30421;BME280;17218;54.070;10.012;2024-01-07T03:28:57;102119.44;;;0.37;100.00
30421;BME280;17218;54.070;10.012;2024-01-07T03:31:25;102130.00;;;0.43;100.00
30421;BME280;17218;54.070;10.012;2024-01-07T03:33:53;102122.53;;;0.46;100.00
30421;BME280;17218;54.070;10.012;2024-01-07T03:36:19;102134.41;;;0.46;100.00
30421;BME280;17218;54.070;10.012;2024-01-07T03:38:46;102125.19;;;0.48;100.00
30421;BME280;17218;54.070;10.012;2024-01-07T03:41:15;102137.50;;;0.55;100.00
30421;BME280;17218;54.070;10.012;2024-01-07T03:43:42;102135.63;;;0.53;100.00
30421;BME280;17218;54.070;10.012;2024-01-07T03:46:08;102123.69;;;0.37;100.00
30421;BME280;17218;54.070;10.012;2024-01-07T03:48:35;102138.00;;;0.34;100.00
30421;BME280;17218;54.070;10.012;2024-01-07T03:51:03;102149.09;;;0.35;100.00
30421;BME280;17218;54.070;10.012;2024-01-07T03:53:29;102139.66;;;0.19;100.00
30421;BME280;17218;54.070;10.012;2024-01-07T03:55:56;102142.28;;;0.20;100.00
30421;BME280;17218;54.070;10.012;2024-01-07T03:58:22;102146.88;;;0.26;100.00
30421;BME280;17218;54.070;10.012;2024-01-07T04:00:49;102160.41;;;0.25;100.00
30421;BME280;17218;54.070;10.012;2024-01-07T04:03:15;102155.25;;;0.23;100.00
30421;BME280;17218;54.070;10.012;2024-01-07T04:05:42;102152.78;;;0.25;100.00
30421;BME280;17218;54.070;10.012;2024-01-07T04:08:12;102162.38;;;0.29;100.00
30421;BME280;17218;54.070;10.012;2024-01-07T04:10:41;102166.81;;;0.33;100.00
30421;BME280;17218;54.070;10.012;2024-01-07T04:13:08;102170.09;;;0.31;100.00
30421;BME280;17218;54.070;10.012;2024-01-07T04:15:34;102168.75;;;0.22;100.00
30421;BME280;17218;54.070;10.012;2024-01-07T04:18:01;102166.63;;;0.15;100.00
30421;BME280;17218;54.070;10.012;2024-01-07T04:20:28;102166.72;;;0.17;100.00
30421;BME280;17218;54.070;10.012;2024-01-07T04:22:55;102169.47;;;0.20;100.00
30421;BME280;17218;54.070;10.012;2024-01-07T04:25:23;102179.16;;;0.26;100.00
30421;BME280;17218;54.070;10.012;2024-01-07T04:27:50;102177.56;;;0.28;100.00
30421;BME280;17218;54.070;10.012;2024-01-07T04:30:16;102186.50;;;0.21;100.00
30421;BME280;17218;54.070;10.012;2024-01-07T04:32:43;102187.47;;;0.23;100.00
30421;BME280;17218;54.070;10.012;2024-01-07T04:35:09;102190.94;;;0.23;100.00
30421;BME280;17218;54.070;10.012;2024-01-07T04:37:37;102188.47;;;0.25;100.00
30421;BME280;17218;54.070;10.012;2024-01-07T04:40:04;102201.03;;;0.22;100.00
30421;BME280;17218;54.070;10.012;2024-01-07T04:42:32;102207.38;;;0.29;100.00
30421;BME280;17218;54.070;10.012;2024-01-07T04:44:58;102204.22;;;0.33;100.00
30421;BME280;17218;54.070;10.012;2024-01-07T04:47:26;102219.16;;;0.42;100.00
30421;BME280;17218;54.070;10.012;2024-01-07T04:49:53;102218.16;;;0.25;100.00
30421;BME280;17218;54.070;10.012;2024-01-07T04:52:21;102214.94;;;0.27;100.00
30421;BME280;17218;54.070;10.012;2024-01-07T04:54:48;102218.06;;;0.23;100.00
30421;BME280;17218;54.070;10.012;2024-01-07T04:57:14;102219.81;;;0.09;100.00
30421;BME280;17218;54.070;10.012;2024-01-07T04:59:42;102217.19;;;0.07;100.00
30421;BME280;17218;54.070;10.012;2024-01-07T05:02:10;102218.53;;;0.02;100.00
30421;BME280;17218;54.070;10.012;2024-01-07T05:04:36;102226.31;;;0.04;100.00
30421;BME280;17218;54.070;10.012;2024-01-07T05:07:03;102229.06;;;-0.07;100.00
30421;BME280;17218;54.070;10.012;2024-01-07T05:09:30;102231.03;;;-0.16;100.00
30421;BME280;17218;54.070;10.012;2024-01-07T05:11:57;102238.28;;;-0.09;100.00
30421;BME280;17218;54.070;10.012;2024-01-07T05:14:23;102242.50;;;-0.09;100.00
30421;BME280;17218;54.070;10.012;2024-01-07T05:16:53;102233.00;;;-0.12;100.00
30421;BME280;17218;54.070;10.012;2024-01-07T05:19:19;102248.97;;;-0.15;100.00
30421;BME280;17218;54.070;10.012;2024-01-07T05:21:46;102252.31;;;-0.16;100.00
30421;BME280;17218;54.070;10.012;2024-01-07T05:24:12;102251.50;;;-0.15;100.00
30421;BME280;17218;54.070;10.012;2024-01-07T05:26:39;102263.66;;;-0.10;100.00
30421;BME280;17218;54.070;10.012;2024-01-07T05:29:05;102263.19;;;-0.18;100.00
30421;BME280;17218;54.070;10.012;2024-01-07T05:31:32;102262.41;;;-0.17;100.00
30421;BME280;17218;54.070;10.012;2024-01-07T05:34:00;102264.38;;;-0.13;100.00
30421;BME280;17218;54.070;10.012;2024-01-07T05:36:26;102274.00;;;-0.22;100.00
30421;BME280;17218;54.070;10.012;2024-01-07T05:38:53;102279.53;;;-0.15;100.00
30421;BME280;17218;54.070;10.012;2024-01-07T05:41:19;102267.72;;;-0.28;100.00
30421;BME280;17218;54.070;10.012;2024-01-07T05:43:46;102273.38;;;-0.18;100.00
30421;BME280;17218;54.070;10.012;2024-01-07T05:46:12;102276.31;;;-0.12;100.00
30421;BME280;17218;54.070;10.012;2024-01-07T05:48:42;102273.94;;;-0.09;100.00
30421;BME280;17218;54.070;10.012;2024-01-07T05:51:11;102268.59;;;-0.14;100.00
30421;BME280;17218;54.070;10.012;2024-01-07T05:53:38;102270.38;;;-0.26;100.00
30421;BME280;17218;54.070;10.012;2024-01-07T05:56:05;102283.03;;;-0.41;100.00
30421;BME280;17218;54.070;10.012;2024-01-07T05:58:32;102279.41;;;-0.45;100.00
30421;BME280;17218;54.070;10.012;2024-01-07T06:00:58;102273.91;;;-0.51;100.00
30421;BME280;17218;54.070;10.012;2024-01-07T06:03:25;102276.94;;;-0.57;100.00
30421;BME280;17218;54.070;10.012;2024-01-07T06:05:52;102287.63;;;-0.63;100.00
30421;BME280;17218;54.070;10.012;2024-01-07T06:08:20;102289.69;;;-0.70;100.00
30421;BME280;17218;54.070;10.012;2024-01-07T06:10:46;102293.59;;;-0.89;100.00
30421;BME280;17218;54.070;10.012;2024-01-07T06:13:13;102299.25;;;-0.93;100.00
30421;BME280;17218;54.070;10.012;2024-01-07T06:15:39;102291.72;;;-1.05;100.00
30421;BME280;17218;54.070;10.012;2024-01-07T06:18:06;102308.41;;;-1.09;100.00
30421;BME280;17218;54.070;10.012;2024-01-07T06:20:33;102316.16;;;-1.08;100.00
30421;BME280;17218;54.070;10.012;2024-01-07T06:22:59;102315.75;;;-1.14;100.00
30421;BME280;17218;54.070;10.012;2024-01-07T06:25:27;102318.66;;;-1.21;100.00
30421;BME280;17218;54.070;10.012;2024-01-07T06:27:54;102317.47;;;-1.26;100.00
30421;BME280;17218;54.070;10.012;2024-01-07T06:30:20;102328.88;;;-1.33;100.00
30421;BME280;17218;54.070;10.012;2024-01-07T06:32:46;102328.09;;;-1.32;100.00
30421;BME280;17218;54.070;10.012;2024-01-07T06:35:13;102335.31;;;-1.38;100.00
30421;BME280;17218;54.070;10.012;2024-01-07T06:37:40;102332.47;;;-1.43;100.00
30421;BME280;17218;54.070;10.012;2024-01-07T06:40:07;102339.09;;;-1.45;100.00
30421;BME280;17218;54.070;10.012;2024-01-07T06:42:35;102339.00;;;-1.47;100.00
30421;BME280;17218;54.070;10.012;2024-01-07T06:45:03;102341.22;;;-1.51;100.00
30421;BME280;17218;54.070;10.012;2024-01-07T06:47:29;102354.19;;;-1.60;100.00
30421;BME280;17218;54.070;10.012;2024-01-07T06:49:56;102349.25;;;-1.71;100.00
30421;BME280;17218;54.070;10.012;2024-01-07T06:52:22;102354.34;;;-1.71;100.00
30421;BME280;17218;54.070;10.012;2024-01-07T06:54:49;102364.50;;;-1.71;100.00
30421;BME280;17218;54.070;10.012;2024-01-07T06:57:15;102350.34;;;-1.79;100.00
30421;BME280;17218;54.070;10.012;2024-01-07T06:59:43;102354.59;;;-1.80;100.00
30421;BME280;17218;54.070;10.012;2024-01-07T07:02:09;102365.59;;;-1.79;100.00
30421;BME280;17218;54.070;10.012;2024-01-07T07:04:36;102367.38;;;-1.78;100.00
30421;BME280;17218;54.070;10.012;2024-01-07T07:07:03;102370.47;;;-1.82;100.00
30421;BME280;17218;54.070;10.012;2024-01-07T07:09:29;102375.34;;;-1.85;100.00
30421;BME280;17218;54.070;10.012;2024-01-07T07:11:56;102378.91;;;-1.95;100.00
30421;BME280;17218;54.070;10.012;2024-01-07T07:14:22;102381.78;;;-1.90;100.00
30421;BME280;17218;54.070;10.012;2024-01-07T07:16:50;102384.88;;;-1.95;100.00
30421;BME280;17218;54.070;10.012;2024-01-07T07:19:17;102385.41;;;-1.99;100.00
30421;BME280;17218;54.070;10.012;2024-01-07T07:21:44;102388.41;;;-2.05;100.00
30421;BME280;17218;54.070;10.012;2024-01-07T07:24:10;102403.00;;;-2.02;100.00
30421;BME280;17218;54.070;10.012;2024-01-07T07:26:37;102402.09;;;-2.02;100.00
30421;BME280;17218;54.070;10.012;2024-01-07T07:29:06;102410.84;;;-2.11;100.00
30421;BME280;17218;54.070;10.012;2024-01-07T07:31:34;102415.03;;;-2.11;100.00
30421;BME280;17218;54.070;10.012;2024-01-07T07:34:03;102422.75;;;-2.10;100.00
30421;BME280;17218;54.070;10.012;2024-01-07T07:36:29;102418.66;;;-2.08;100.00
30421;BME280;17218;54.070;10.012;2024-01-07T07:38:56;102423.84;;;-2.06;100.00
30421;BME280;17218;54.070;10.012;2024-01-07T07:41:22;102432.13;;;-2.09;100.00
30421;BME280;17218;54.070;10.012;2024-01-07T07:43:49;102428.94;;;-2.06;100.00
30421;BME280;17218;54.070;10.012;2024-01-07T07:46:15;102438.19;;;-2.07;100.00
30421;BME280;17218;54.070;10.012;2024-01-07T07:48:42;102445.59;;;-2.10;100.00
30421;BME280;17218;54.070;10.012;2024-01-07T07:51:10;102441.84;;;-2.15;100.00
30421;BME280;17218;54.070;10.012;2024-01-07T07:53:38;102443.41;;;-2.17;100.00
30421;BME280;17218;54.070;10.012;2024-01-07T07:56:05;102455.19;;;-2.18;100.00
30421;BME280;17218;54.070;10.012;2024-01-07T07:58:33;102450.00;;;-2.19;100.00
30421;BME280;17218;54.070;10.012;2024-01-07T08:01:00;102456.63;;;-2.21;100.00
30421;BME280;17218;54.070;10.012;2024-01-07T08:03:27;102454.88;;;-2.22;100.00
30421;BME280;17218;54.070;10.012;2024-01-07T08:05:53;102461.94;;;-2.18;100.00
30421;BME280;17218;54.070;10.012;2024-01-07T08:08:21;102467.78;;;-2.19;100.00
30421;BME280;17218;54.070;10.012;2024-01-07T08:10:48;102471.97;;;-2.20;100.00
30421;BME280;17218;54.070;10.012;2024-01-07T08:13:14;102477.06;;;-2.20;100.00
30421;BME280;17218;54.070;10.012;2024-01-07T08:15:41;102476.50;;;-2.16;100.00
30421;BME280;17218;54.070;10.012;2024-01-07T08:18:08;102481.59;;;-2.16;100.00
30421;BME280;17218;54.070;10.012;2024-01-07T08:20:34;102481.59;;;-2.16;100.00
30421;BME280;17218;54.070;10.012;2024-01-07T08:23:01;102491.84;;;-2.14;100.00
30421;BME280;17218;54.070;10.012;2024-01-07T08:25:29;102491.66;;;-2.17;100.00
30421;BME280;17218;54.070;10.012;2024-01-07T08:27:55;102477.41;;;-2.15;100.00
30421;BME280;17218;54.070;10.012;2024-01-07T08:30:22;102488.66;;;-2.11;100.00
30421;BME280;17218;54.070;10.012;2024-01-07T08:32:49;102476.72;;;-2.12;100.00
30421;BME280;17218;54.070;10.012;2024-01-07T08:35:15;102493.06;;;-2.09;100.00
30421;BME280;17218;54.070;10.012;2024-01-07T08:37:42;102499.25;;;-2.05;100.00
30421;BME280;17218;54.070;10.012;2024-01-07T08:40:11;102492.00;;;-2.00;100.00
30421;BME280;17218;54.070;10.012;2024-01-07T08:42:40;102488.91;;;-1.96;100.00
30421;BME280;17218;54.070;10.012;2024-01-07T08:45:08;102504.47;;;-1.92;100.00
30421;BME280;17218;54.070;10.012;2024-01-07T08:47:34;102498.53;;;-1.80;100.00
30421;BME280;17218;54.070;10.012;2024-01-07T08:50:02;102504.16;;;-1.72;100.00
30421;BME280;17218;54.070;10.012;2024-01-07T08:52:29;102513.41;;;-1.61;100.00
30421;BME280;17218;54.070;10.012;2024-01-07T08:54:56;102513.97;;;-1.53;100.00
30421;BME280;17218;54.070;10.012;2024-01-07T08:57:22;102514.44;;;-1.47;100.00
30421;BME280;17218;54.070;10.012;2024-01-07T08:59:50;102529.13;;;-1.42;100.00
30421;BME280;17218;54.070;10.012;2024-01-07T09:02:17;102527.56;;;-1.28;100.00
30421;BME280;17218;54.070;10.012;2024-01-07T09:04:44;102530.84;;;-1.17;100.00
30421;BME280;17218;54.070;10.012;2024-01-07T09:07:11;102530.59;;;-1.09;100.00
30421;BME280;17218;54.070;10.012;2024-01-07T09:09:37;102539.97;;;-0.96;100.00
30421;BME280;17218;54.070;10.012;2024-01-07T09:12:04;102537.31;;;-0.85;100.00
30421;BME280;17218;54.070;10.012;2024-01-07T09:14:31;102535.91;;;-0.68;100.00
30421;BME280;17218;54.070;10.012;2024-01-07T09:16:59;102539.50;;;-0.52;100.00
30421;BME280;17218;54.070;10.012;2024-01-07T09:19:26;102541.25;;;-0.51;100.00
30421;BME280;17218;54.070;10.012;2024-01-07T09:21:52;102536.69;;;-0.43;100.00
30421;BME280;17218;54.070;10.012;2024-01-07T09:24:19;102537.22;;;-0.35;100.00
30421;BME280;17218;54.070;10.012;2024-01-07T09:26:45;102536.41;;;-0.34;100.00
30421;BME280;17218;54.070;10.012;2024-01-07T09:29:12;102536.31;;;-0.36;100.00
30421;BME280;17218;54.070;10.012;2024-01-07T09:31:39;102525.47;;;-0.33;100.00
30421;BME280;17218;54.070;10.012;2024-01-07T09:34:07;102531.41;;;-0.33;100.00
30421;BME280;17218;54.070;10.012;2024-01-07T09:36:34;102549.06;;;-0.36;100.00
30421;BME280;17218;54.070;10.012;2024-01-07T09:39:00;102547.41;;;-0.35;100.00
30421;BME280;17218;54.070;10.012;2024-01-07T09:41:30;102550.41;;;-0.41;100.00
30421;BME280;17218;54.070;10.012;2024-01-07T09:43:57;102546.31;;;-0.39;100.00
30421;BME280;17218;54.070;10.012;2024-01-07T09:46:24;102543.97;;;-0.36;100.00
30421;BME280;17218;54.070;10.012;2024-01-07T09:48:51;102540.75;;;-0.33;100.00
30421;BME280;17218;54.070;10.012;2024-01-07T09:51:22;102557.88;;;-0.31;100.00
30421;BME280;17218;54.070;10.012;2024-01-07T09:53:51;102553.13;;;-0.26;100.00
30421;BME280;17218;54.070;10.012;2024-01-07T09:56:25;102551.53;;;-0.24;100.00
30421;BME280;17218;54.070;10.012;2024-01-07T09:58:52;102552.50;;;-0.22;100.00
30421;BME280;17218;54.070;10.012;2024-01-07T10:01:18;102539.69;;;-0.23;100.00
30421;BME280;17218;54.070;10.012;2024-01-07T10:03:45;102545.94;;;-0.18;100.00
30421;BME280;17218;54.070;10.012;2024-01-07T10:06:12;102540.84;;;-0.18;100.00
30421;BME280;17218;54.070;10.012;2024-01-07T10:08:40;102547.16;;;-0.13;100.00
30421;BME280;17218;54.070;10.012;2024-01-07T10:11:07;102544.50;;;-0.15;100.00
30421;BME280;17218;54.070;10.012;2024-01-07T10:13:34;102545.38;;;-0.14;100.00
30421;BME280;17218;54.070;10.012;2024-01-07T10:16:01;102554.00;;;-0.12;100.00
30421;BME280;17218;54.070;10.012;2024-01-07T10:18:28;102545.94;;;-0.18;100.00
30421;BME280;17218;54.070;10.012;2024-01-07T10:21:01;102541.75;;;-0.18;100.00
30421;BME280;17218;54.070;10.012;2024-01-07T10:23:30;102548.22;;;-0.23;100.00
30421;BME280;17218;54.070;10.012;2024-01-07T10:25:58;102546.13;;;-0.29;100.00
30421;BME280;17218;54.070;10.012;2024-01-07T10:28:27;102550.19;;;-0.19;100.00
30421;BME280;17218;54.070;10.012;2024-01-07T10:30:54;102544.88;;;0.44;100.00
30421;BME280;17218;54.070;10.012;2024-01-07T10:33:20;102553.41;;;0.58;100.00
30421;BME280;17218;54.070;10.012;2024-01-07T10:36:01;102551.25;;;0.51;100.00
30421;BME280;17218;54.070;10.012;2024-01-07T10:38:29;102545.75;;;0.45;100.00
30421;BME280;17218;54.070;10.012;2024-01-07T10:40:56;102549.78;;;0.68;100.00
30421;BME280;17218;54.070;10.012;2024-01-07T10:43:29;102552.41;;;1.41;100.00
30421;BME280;17218;54.070;10.012;2024-01-07T10:46:00;102546.03;;;2.38;100.00
30421;BME280;17218;54.070;10.012;2024-01-07T10:48:33;102542.19;;;2.94;100.00
30421;BME280;17218;54.070;10.012;2024-01-07T10:51:02;102540.03;;;3.35;100.00
30421;BME280;17218;54.070;10.012;2024-01-07T10:53:33;102537.63;;;3.38;100.00
30421;BME280;17218;54.070;10.012;2024-01-07T10:56:03;102542.75;;;3.38;100.00
30421;BME280;17218;54.070;10.012;2024-01-07T10:58:32;102549.19;;;2.98;100.00
30421;BME280;17218;54.070;10.012;2024-01-07T11:01:00;102545.28;;;2.56;100.00
30421;BME280;17218;54.070;10.012;2024-01-07T11:03:35;102555.22;;;2.05;100.00
30421;BME280;17218;54.070;10.012;2024-01-07T11:06:07;102556.00;;;1.73;100.00
30421;BME280;17218;54.070;10.012;2024-01-07T11:08:39;102553.50;;;1.60;100.00
30421;BME280;17218;54.070;10.012;2024-01-07T11:11:20;102559.75;;;1.50;100.00
30421;BME280;17218;54.070;10.012;2024-01-07T11:13:50;102563.09;;;1.49;100.00
30421;BME280;17218;54.070;10.012;2024-01-07T11:16:42;102553.59;;;1.61;100.00
30421;BME280;17218;54.070;10.012;2024-01-07T11:19:09;102562.94;;;1.76;100.00
30421;BME280;17218;54.070;10.012;2024-01-07T11:21:36;102554.88;;;2.13;100.00
30421;BME280;17218;54.070;10.012;2024-01-07T11:24:03;102558.28;;;2.44;100.00
30421;BME280;17218;54.070;10.012;2024-01-07T11:26:30;102562.19;;;2.69;100.00
30421;BME280;17218;54.070;10.012;2024-01-07T11:29:00;102551.00;;;2.67;100.00
30421;BME280;17218;54.070;10.012;2024-01-07T11:31:44;102554.75;;;2.74;100.00
30421;BME280;17218;54.070;10.012;2024-01-07T11:34:38;102559.09;;;2.75;100.00
30421;BME280;17218;54.070;10.012;2024-01-07T11:37:07;102550.69;;;2.78;100.00
30421;BME280;17218;54.070;10.012;2024-01-07T11:39:34;102554.72;;;2.89;100.00
30421;BME280;17218;54.070;10.012;2024-01-07T11:42:01;102556.22;;;2.85;100.00
30421;BME280;17218;54.070;10.012;2024-01-07T11:44:29;102562.09;;;3.16;100.00
30421;BME280;17218;54.070;10.012;2024-01-07T11:46:55;102549.09;;;3.80;100.00
30421;BME280;17218;54.070;10.012;2024-01-07T11:49:22;102554.38;;;4.55;100.00
30421;BME280;17218;54.070;10.012;2024-01-07T11:51:49;102549.78;;;5.65;100.00
30421;BME280;17218;54.070;10.012;2024-01-07T11:54:15;102548.78;;;6.70;100.00
30421;BME280;17218;54.070;10.012;2024-01-07T11:56:42;102541.00;;;7.64;100.00
30421;BME280;17218;54.070;10.012;2024-01-07T11:59:09;102541.00;;;8.18;100.00
30421;BME280;17218;54.070;10.012;2024-01-07T12:01:37;102548.09;;;8.82;100.00
30421;BME280;17218;54.070;10.012;2024-01-07T12:04:04;102544.88;;;10.25;93.49
30421;BME280;17218;54.070;10.012;2024-01-07T12:06:30;102543.91;;;11.49;83.50
30421;BME280;17218;54.070;10.012;2024-01-07T12:08:57;102538.44;;;13.10;62.97
30421;BME280;17218;54.070;10.012;2024-01-07T12:11:24;102538.16;;;13.69;66.69
30421;BME280;17218;54.070;10.012;2024-01-07T12:13:50;102530.31;;;15.44;49.70
30421;BME280;17218;54.070;10.012;2024-01-07T12:16:18;102526.59;;;16.83;49.17
30421;BME280;17218;54.070;10.012;2024-01-07T12:18:46;102532.78;;;17.93;43.11
30421;BME280;17218;54.070;10.012;2024-01-07T12:21:18;102536.41;;;18.65;36.82
30421;BME280;17218;54.070;10.012;2024-01-07T12:23:48;102538.72;;;18.87;35.40
30421;BME280;17218;54.070;10.012;2024-01-07T12:26:14;102537.81;;;18.18;35.54
30421;BME280;17218;54.070;10.012;2024-01-07T12:28:41;102537.13;;;17.94;35.14
30421;BME280;17218;54.070;10.012;2024-01-07T12:31:08;102535.72;;;17.60;35.80
30421;BME280;17218;54.070;10.012;2024-01-07T12:33:37;102538.69;;;18.19;34.97
30421;BME280;17218;54.070;10.012;2024-01-07T12:36:12;102542.63;;;17.66;34.45